createdAt,value
2022-12-31T00:01:54.022Z,-15.74
2022-12-31T00:04:57.036Z,-15.72
2022-12-31T00:08:00.709Z,-15.78
2022-12-31T00:11:03.743Z,-15.78
2022-12-31T00:14:07.945Z,-15.71
2022-12-31T00:17:11.161Z,-15.76
2022-12-31T00:20:14.830Z,-15.79
2022-12-31T00:23:17.756Z,-15.79
2022-12-31T00:26:27.304Z,-15.78
2022-12-31T00:29:31.076Z,-15.75
2022-12-31T00:32:34.520Z,-15.78
2022-12-31T00:35:37.573Z,-15.86
2022-12-31T00:38:43.128Z,-15.90
2022-12-31T00:41:46.098Z,-15.96
2022-12-31T00:44:48.997Z,-15.93
2022-12-31T00:47:51.939Z,-15.90
2022-12-31T00:50:56.545Z,-15.86
2022-12-31T00:53:59.980Z,-15.79
2022-12-31T00:57:21.594Z,-15.72
2022-12-31T01:00:25.121Z,-15.69
2022-12-31T01:03:28.853Z,-15.59
2022-12-31T01:06:32.627Z,-15.50
2022-12-31T01:09:36.024Z,-15.45
2022-12-31T01:12:42.915Z,-15.37
2022-12-31T01:15:46.802Z,-15.28
2022-12-31T01:18:50.593Z,-15.27
2022-12-31T01:22:12.566Z,-15.28
2022-12-31T01:25:15.627Z,-15.31
2022-12-31T01:28:18.808Z,-15.30
2022-12-31T01:31:23.427Z,-15.30
2022-12-31T01:34:31.631Z,-15.26
2022-12-31T01:37:34.181Z,-15.26
2022-12-31T01:40:41.569Z,-15.34
2022-12-31T01:43:52.135Z,-15.43
2022-12-31T01:46:59.562Z,-15.50
2022-12-31T01:50:22.089Z,-15.43
2022-12-31T01:53:25.905Z,-15.34
2022-12-31T01:56:29.823Z,-15.20
2022-12-31T01:59:34.795Z,-15.02
2022-12-31T02:02:39.071Z,-14.86
2022-12-31T02:05:58.627Z,-14.63
2022-12-31T02:09:02.228Z,-14.48
2022-12-31T02:12:24.776Z,-14.46
2022-12-31T02:15:52.074Z,-14.29
2022-12-31T02:19:20.965Z,-14.08
2022-12-31T02:22:38.038Z,-13.95
2022-12-31T02:26:19.231Z,-13.79
2022-12-31T02:29:34.973Z,-13.65
2022-12-31T02:33:19.054Z,-13.53
2022-12-31T02:36:26.080Z,-13.39
2022-12-31T02:39:30.668Z,-13.40
2022-12-31T02:42:55.531Z,-13.65
2022-12-31T02:46:38.905Z,-13.74
2022-12-31T02:50:34.357Z,-13.79
2022-12-31T02:54:21.720Z,-13.68
2022-12-31T02:57:40.778Z,-13.50
2022-12-31T03:01:11.287Z,-13.33
2022-12-31T03:04:34.328Z,-13.11
2022-12-31T03:07:37.814Z,-12.96
2022-12-31T03:10:43.277Z,-12.94
2022-12-31T03:13:46.541Z,-13.01
2022-12-31T03:16:49.679Z,-12.87
2022-12-31T03:20:28.222Z,-12.85
2022-12-31T03:23:37.043Z,-12.88
2022-12-31T03:26:40.308Z,-12.89
2022-12-31T03:30:02.248Z,-12.92
2022-12-31T03:33:07.950Z,-12.94
2022-12-31T03:36:15.006Z,-12.96
2022-12-31T03:39:36.617Z,-13.04
2022-12-31T03:42:39.762Z,-13.11
2022-12-31T03:45:43.514Z,-13.06
2022-12-31T03:48:47.639Z,-12.92
2022-12-31T03:51:50.950Z,-12.87
2022-12-31T03:54:54.311Z,-12.68
2022-12-31T03:57:57.369Z,-12.43
2022-12-31T04:01:00.396Z,-12.33
2022-12-31T04:04:04.271Z,-12.05
2022-12-31T04:07:08.402Z,-11.94
2022-12-31T04:10:13.865Z,-11.84
2022-12-31T04:13:17.828Z,-11.82
2022-12-31T04:16:21.523Z,-11.61
2022-12-31T04:19:25.579Z,-11.46
2022-12-31T04:22:29.300Z,-11.29
2022-12-31T04:25:33.610Z,-11.12
2022-12-31T04:28:55.871Z,-11.12
2022-12-31T04:32:17.801Z,-11.10
2022-12-31T04:35:39.980Z,-11.07
2022-12-31T04:38:43.259Z,-11.05
2022-12-31T04:41:46.199Z,-11.05
2022-12-31T04:45:08.280Z,-11.00
2022-12-31T04:48:30.421Z,-11.05
2022-12-31T04:51:34.401Z,-11.10
2022-12-31T04:54:37.723Z,-11.15
2022-12-31T04:57:59.270Z,-11.02
2022-12-31T05:01:03.036Z,-10.88
2022-12-31T05:04:25.112Z,-10.97
2022-12-31T05:07:29.478Z,-11.00
2022-12-31T05:10:32.803Z,-11.19
2022-12-31T05:13:36.428Z,-11.22
2022-12-31T05:16:40.307Z,-11.22
2022-12-31T05:20:02.473Z,-11.28
2022-12-31T05:23:24.373Z,-11.26
2022-12-31T05:26:46.402Z,-11.12
2022-12-31T05:29:51.437Z,-10.87
2022-12-31T05:32:56.576Z,-10.68
2022-12-31T05:36:00.655Z,-10.57
2022-12-31T05:39:03.573Z,-10.49
2022-12-31T05:42:07.304Z,-10.77
2022-12-31T05:45:13.944Z,-11.19
2022-12-31T05:48:17.661Z,-11.35
2022-12-31T05:51:20.617Z,-11.33
2022-12-31T05:54:24.651Z,-11.49
2022-12-31T05:57:28.331Z,-11.50
2022-12-31T06:00:32.845Z,-11.38
2022-12-31T06:03:36.274Z,-11.28
2022-12-31T06:06:39.557Z,-11.05
2022-12-31T06:10:01.810Z,-11.05
2022-12-31T06:13:05.678Z,-11.07
2022-12-31T06:16:12.049Z,-11.31
2022-12-31T06:19:34.149Z,-11.46
2022-12-31T06:22:37.493Z,-11.39
2022-12-31T06:25:41.251Z,-11.49
2022-12-31T06:28:44.618Z,-11.67
2022-12-31T06:31:47.481Z,-11.70
2022-12-31T06:35:08.719Z,-11.73
2022-12-31T06:38:29.908Z,-11.81
2022-12-31T06:41:33.043Z,-11.87
2022-12-31T06:45:13.337Z,-11.85
2022-12-31T06:48:17.203Z,-11.78
2022-12-31T06:51:22.265Z,-11.82
2022-12-31T06:54:26.437Z,-11.63
2022-12-31T06:57:29.923Z,-11.49
2022-12-31T07:00:35.174Z,-11.35
2022-12-31T07:03:56.391Z,-11.31
2022-12-31T07:07:02.308Z,-11.28
2022-12-31T07:10:30.152Z,-11.33
2022-12-31T07:14:08.118Z,-11.32
2022-12-31T07:17:56.495Z,-11.23
2022-12-31T07:20:59.830Z,-11.32
2022-12-31T07:24:04.238Z,-11.35
2022-12-31T07:27:21.803Z,-11.49
2022-12-31T07:30:50.173Z,-11.60
2022-12-31T07:34:02.472Z,-11.77
2022-12-31T07:37:35.990Z,-11.87
2022-12-31T07:41:10.205Z,-11.75
2022-12-31T07:44:16.233Z,-11.71
2022-12-31T07:47:27.611Z,-11.66
2022-12-31T07:50:31.626Z,-11.70
2022-12-31T07:53:35.227Z,-11.71
2022-12-31T07:56:38.341Z,-11.70
2022-12-31T08:00:04.496Z,-11.78
2022-12-31T08:04:02.092Z,-11.85
2022-12-31T08:07:30.305Z,-11.92
2022-12-31T08:10:44.424Z,-11.99
2022-12-31T08:13:48.997Z,-12.05
2022-12-31T08:17:32.633Z,-12.22
2022-12-31T08:20:47.934Z,-12.39
2022-12-31T08:24:09.814Z,-12.52
2022-12-31T08:27:31.532Z,-12.54
2022-12-31T08:31:01.814Z,-12.54
2022-12-31T08:34:54.873Z,-12.59
2022-12-31T08:38:12.400Z,-12.61
2022-12-31T08:41:31.160Z,-12.71
2022-12-31T08:44:49.159Z,-12.84
2022-12-31T08:48:20.430Z,-12.94
2022-12-31T08:51:25.480Z,-13.01
2022-12-31T08:54:30.330Z,-13.11
2022-12-31T08:58:21.091Z,-13.18
2022-12-31T09:02:25.364Z,-13.23
2022-12-31T09:05:57.646Z,-13.33
2022-12-31T09:09:20.240Z,-13.37
2022-12-31T09:12:50.760Z,-13.44
2022-12-31T09:16:03.614Z,-13.58
2022-12-31T09:19:24.927Z,-13.60
2022-12-31T09:22:29.137Z,-13.64
2022-12-31T09:25:33.200Z,-13.71
2022-12-31T09:29:08.711Z,-13.77
2022-12-31T09:32:11.660Z,-13.86
2022-12-31T09:35:39.963Z,-13.93
2022-12-31T09:38:53.137Z,-13.96
2022-12-31T09:42:19.013Z,-13.95
2022-12-31T09:45:49.775Z,-13.93
2022-12-31T09:49:32.056Z,-13.96
2022-12-31T09:52:53.746Z,-13.96
2022-12-31T09:56:23.798Z,-13.96
2022-12-31T09:59:41.106Z,-13.89
2022-12-31T10:02:45.975Z,-13.89
2022-12-31T10:06:22.859Z,-13.88
2022-12-31T10:09:36.939Z,-13.96
2022-12-31T10:12:53.244Z,-14.03
2022-12-31T10:16:07.512Z,-14.10
2022-12-31T10:19:40.443Z,-14.10
2022-12-31T10:22:56.869Z,-14.10
2022-12-31T10:26:21.995Z,-14.09
2022-12-31T10:29:33.253Z,-14.13
2022-12-31T10:32:44.858Z,-14.23
2022-12-31T10:36:28.037Z,-14.29
2022-12-31T10:39:42.753Z,-14.39
2022-12-31T10:43:09.078Z,-14.41
2022-12-31T10:46:45.763Z,-14.47
2022-12-31T10:50:13.649Z,-14.51
2022-12-31T10:53:34.955Z,-14.51
2022-12-31T10:57:01.629Z,-14.57
2022-12-31T11:00:12.267Z,-14.60
2022-12-31T11:03:37.092Z,-14.60
2022-12-31T11:06:52.471Z,-14.64
2022-12-31T11:10:41.798Z,-14.68
2022-12-31T11:13:59.173Z,-14.74
2022-12-31T11:17:40.802Z,-14.77
2022-12-31T11:21:01.295Z,-14.78
2022-12-31T11:24:32.441Z,-14.79
2022-12-31T11:28:13.249Z,-14.85
2022-12-31T11:31:31.742Z,-14.86
2022-12-31T11:34:38.107Z,-14.88
2022-12-31T11:38:22.261Z,-14.84
2022-12-31T11:41:57.399Z,-14.81
2022-12-31T11:45:23.808Z,-14.79
2022-12-31T11:48:56.284Z,-14.82
2022-12-31T11:52:30.906Z,-14.82
2022-12-31T11:55:43.949Z,-14.85
2022-12-31T11:58:50.143Z,-14.85
2022-12-31T12:02:12.962Z,-14.89
2022-12-31T12:05:37.480Z,-14.91
2022-12-31T12:09:00.510Z,-14.96
2022-12-31T12:12:06.778Z,-14.99
2022-12-31T12:15:30.458Z,-15.07
2022-12-31T12:18:51.748Z,-15.09
2022-12-31T12:21:55.184Z,-15.19
2022-12-31T12:25:36.388Z,-15.20
2022-12-31T12:28:46.770Z,-15.26
2022-12-31T12:31:58.870Z,-15.33
2022-12-31T12:35:27.844Z,-15.41
2022-12-31T12:38:31.819Z,-15.44
2022-12-31T12:41:35.223Z,-15.43
2022-12-31T12:44:57.820Z,-15.44
2022-12-31T12:49:00.284Z,-15.44
2022-12-31T12:53:00.445Z,-15.47
2022-12-31T12:56:23.659Z,-15.58
2022-12-31T13:00:02.192Z,-15.62
2022-12-31T13:03:44.651Z,-15.75
2022-12-31T13:07:33.521Z,-15.82
2022-12-31T13:10:39.296Z,-15.92
2022-12-31T13:13:45.749Z,-15.92
2022-12-31T13:17:10.965Z,-15.89
2022-12-31T13:20:29.591Z,-15.99
2022-12-31T13:23:43.898Z,-16.06
2022-12-31T13:27:16.464Z,-16.07
2022-12-31T13:30:33.329Z,-16.12
2022-12-31T13:34:11.943Z,-16.12
2022-12-31T13:37:29.901Z,-16.14
2022-12-31T13:40:39.260Z,-16.20
2022-12-31T13:43:52.247Z,-16.24
2022-12-31T13:47:05.511Z,-16.35
2022-12-31T13:50:14.692Z,-16.37
2022-12-31T13:53:41.238Z,-16.35
2022-12-31T13:57:12.087Z,-16.37
2022-12-31T14:00:44.620Z,-16.34
2022-12-31T14:03:57.548Z,-16.34
2022-12-31T14:07:41.869Z,-16.34
2022-12-31T14:11:41.133Z,-16.28
2022-12-31T14:15:01.022Z,-16.31
2022-12-31T14:18:22.725Z,-16.34
2022-12-31T14:21:47.972Z,-16.42
2022-12-31T14:25:21.004Z,-16.44
2022-12-31T14:28:46.778Z,-16.48
2022-12-31T14:31:54.297Z,-16.51
2022-12-31T14:35:16.943Z,-16.51
2022-12-31T14:38:54.315Z,-16.56
2022-12-31T14:42:25.825Z,-16.58
2022-12-31T14:46:08.227Z,-16.62
2022-12-31T14:49:59.533Z,-16.72
2022-12-31T14:53:24.216Z,-16.78
2022-12-31T14:56:43.348Z,-16.66
2022-12-31T14:59:59.132Z,-16.63
2022-12-31T15:03:25.665Z,-16.61
2022-12-31T15:06:44.487Z,-16.51
2022-12-31T15:10:22.158Z,-16.52
2022-12-31T15:14:16.099Z,-16.48
2022-12-31T15:18:09.815Z,-16.56
2022-12-31T15:21:46.753Z,-16.56
2022-12-31T15:25:32.697Z,-16.61
2022-12-31T15:28:41.664Z,-16.66
2022-12-31T15:31:48.832Z,-16.75
2022-12-31T15:35:22.927Z,-16.80
2022-12-31T15:38:39.361Z,-16.85
2022-12-31T15:45:38.785Z,-16.79
2022-12-31T15:49:02.012Z,-16.73
2022-12-31T15:52:15.056Z,-16.71
2022-12-31T15:55:53.138Z,-16.66
2022-12-31T15:59:00.617Z,-16.65
2022-12-31T16:02:04.646Z,-16.62
2022-12-31T16:05:38.792Z,-16.63
2022-12-31T16:09:02.479Z,-16.59
2022-12-31T16:12:12.901Z,-16.58
2022-12-31T16:15:23.393Z,-16.63
2022-12-31T16:18:37.962Z,-16.66
2022-12-31T16:21:46.736Z,-16.68
2022-12-31T16:28:31.525Z,-16.71
2022-12-31T16:31:34.847Z,-16.73
2022-12-31T16:34:39.132Z,-16.72
2022-12-31T16:37:42.313Z,-16.75
2022-12-31T16:41:05.516Z,-16.93
2022-12-31T16:44:26.353Z,-17.00
2022-12-31T16:47:52.695Z,-17.11
2022-12-31T16:50:57.216Z,-17.18
2022-12-31T16:54:02.782Z,-17.21
2022-12-31T16:57:25.504Z,-17.20
2022-12-31T17:00:28.913Z,-17.21
2022-12-31T17:03:32.183Z,-17.17
2022-12-31T17:06:35.305Z,-17.23
2022-12-31T17:09:40.189Z,-17.27
2022-12-31T17:13:25.520Z,-17.23
2022-12-31T17:16:11.391Z,-17.20
2022-12-31T17:19:37.265Z,-17.24
2022-12-31T17:22:45.943Z,-17.23
2022-12-31T17:25:49.408Z,-17.27
2022-12-31T17:28:54.984Z,-17.38
2022-12-31T17:32:08.116Z,-17.52
2022-12-31T17:35:50.108Z,-17.59
2022-12-31T17:38:53.127Z,-17.66
2022-12-31T17:41:58.604Z,-17.72
2022-12-31T17:45:07.838Z,-17.73
2022-12-31T17:48:14.685Z,-17.76
2022-12-31T17:51:18.160Z,-17.79
2022-12-31T17:54:46.278Z,-17.85
2022-12-31T17:57:53.734Z,-17.83
2022-12-31T18:00:58.091Z,-17.87
2022-12-31T18:04:01.938Z,-17.91
2022-12-31T18:07:06.803Z,-17.96
2022-12-31T18:10:13.525Z,-17.94
2022-12-31T18:13:24.228Z,-17.97
2022-12-31T18:16:46.274Z,-18.04
2022-12-31T18:20:06.089Z,-18.08
2022-12-31T18:23:22.919Z,-18.10
2022-12-31T18:26:26.720Z,-18.07
2022-12-31T18:29:30.244Z,-18.04
2022-12-31T18:32:34.267Z,-18.03
2022-12-31T18:36:07.735Z,-18.06
2022-12-31T18:39:01.162Z,-18.08
2022-12-31T18:42:23.032Z,-18.06
2022-12-31T18:45:26.429Z,-18.06
2022-12-31T18:48:29.794Z,-18.04
2022-12-31T18:52:09.681Z,-18.01
2022-12-31T18:55:41.043Z,-18.00
2022-12-31T18:58:44.822Z,-17.96
2022-12-31T19:01:47.864Z,-17.93
2022-12-31T19:04:51.120Z,-17.90
2022-12-31T19:07:56.189Z,-17.89
2022-12-31T19:11:00.269Z,-17.86
2022-12-31T19:14:04.398Z,-17.90
2022-12-31T19:20:10.357Z,-18.01
2022-12-31T19:23:17.515Z,-18.01
2022-12-31T19:26:23.536Z,-18.10
2022-12-31T19:29:28.112Z,-18.08
2022-12-31T19:32:32.129Z,-18.04
2022-12-31T19:35:35.797Z,-18.03
2022-12-31T19:38:57.895Z,-18.07
2022-12-31T19:42:00.836Z,-18.13
2022-12-31T19:45:23.703Z,-18.14
2022-12-31T19:48:32.692Z,-18.15
2022-12-31T19:51:36.119Z,-18.21
2022-12-31T19:54:39.110Z,-18.26
2022-12-31T19:57:43.143Z,-18.24
2022-12-31T20:01:05.543Z,-18.31
2022-12-31T20:04:26.796Z,-18.29
2022-12-31T20:07:30.544Z,-18.28
2022-12-31T20:10:34.294Z,-18.26
2022-12-31T20:13:57.644Z,-18.24
2022-12-31T20:17:01.371Z,-18.18
2022-12-31T20:20:23.847Z,-18.17
2022-12-31T20:23:27.423Z,-18.15
2022-12-31T20:26:30.376Z,-18.17
2022-12-31T20:29:34.101Z,-18.21
2022-12-31T20:32:37.880Z,-18.22
2022-12-31T20:36:05.393Z,-18.28
2022-12-31T20:39:08.751Z,-18.38
2022-12-31T20:42:11.744Z,-18.41
2022-12-31T20:45:14.823Z,-18.46
2022-12-31T20:48:18.487Z,-18.51
2022-12-31T20:51:23.379Z,-18.52
2022-12-31T20:54:27.018Z,-18.53
2022-12-31T20:57:33.577Z,-18.57
2022-12-31T21:00:37.347Z,-18.56
2022-12-31T21:07:07.104Z,-18.56
2022-12-31T21:10:11.046Z,-18.60
2022-12-31T21:13:32.676Z,-18.69
2022-12-31T21:16:36.478Z,-18.74
2022-12-31T21:19:39.470Z,-18.72
2022-12-31T21:23:19.419Z,-18.72
2022-12-31T21:26:23.276Z,-18.73
2022-12-31T21:29:32.675Z,-18.73
2022-12-31T21:32:37.367Z,-18.66
2022-12-31T21:35:44.522Z,-18.64
2022-12-31T21:38:50.541Z,-18.67
2022-12-31T21:42:12.137Z,-18.69
2022-12-31T21:45:15.694Z,-18.70
2022-12-31T21:48:22.156Z,-18.72
2022-12-31T21:51:25.587Z,-18.72
2022-12-31T21:54:48.168Z,-18.66
2022-12-31T21:58:24.654Z,-18.62
2022-12-31T22:01:39.970Z,-18.60
2022-12-31T22:05:01.760Z,-18.57
2022-12-31T22:08:06.327Z,-18.57
2022-12-31T22:11:11.356Z,-18.53
2022-12-31T22:14:14.662Z,-18.59
2022-12-31T22:17:17.580Z,-18.63
2022-12-31T22:20:27.494Z,-18.70
2022-12-31T22:23:32.929Z,-18.69
2022-12-31T22:26:56.792Z,-18.69
2022-12-31T22:29:59.781Z,-18.63
2022-12-31T22:33:03.434Z,-18.60
2022-12-31T22:36:09.855Z,-18.59
2022-12-31T22:39:44.159Z,-18.70
2022-12-31T22:42:48.265Z,-18.80
2022-12-31T22:45:51.246Z,-18.76
2022-12-31T22:48:57.485Z,-18.76
2022-12-31T22:52:05.606Z,-18.79
2022-12-31T22:55:12.438Z,-18.76
2022-12-31T22:58:16.069Z,-18.76
2022-12-31T23:01:24.623Z,-18.79
2022-12-31T23:04:28.848Z,-18.73
2022-12-31T23:07:32.602Z,-18.70
2022-12-31T23:10:55.580Z,-18.67
2022-12-31T23:14:17.338Z,-18.66
2022-12-31T23:17:43.065Z,-18.70
2022-12-31T23:21:05.229Z,-18.72
2022-12-31T23:24:18.001Z,-18.74
2022-12-31T23:27:23.303Z,-18.77
2022-12-31T23:30:26.303Z,-18.81
2022-12-31T23:33:47.834Z,-18.83
2022-12-31T23:36:51.521Z,-18.76
2022-12-31T23:39:54.462Z,-18.73
2022-12-31T23:42:57.689Z,-18.63
2022-12-31T23:46:19.874Z,-18.59
2022-12-31T23:49:24.119Z,-18.53
2022-12-31T23:52:27.716Z,-18.52
2022-12-31T23:55:30.541Z,-18.49
2022-12-31T23:58:51.952Z,-18.44
